createdAt,value
2018-01-26T00:00:13.215Z,101068.09
2018-01-26T00:02:39.326Z,101065.86
2018-01-26T00:05:05.414Z,101066.30
2018-01-26T00:07:31.514Z,101062.72
2018-01-26T00:09:57.760Z,101062.66
2018-01-26T00:12:23.947Z,101071.26
2018-01-26T00:14:50.083Z,101063.78
2018-01-26T00:17:16.240Z,101064.55
2018-01-26T00:19:42.401Z,101063.55
2018-01-26T00:22:08.544Z,101058.66
2018-01-26T00:24:34.667Z,101065.45
2018-01-26T00:27:00.856Z,101062.77
2018-01-26T00:29:27.007Z,101061.42
2018-01-26T00:31:53.152Z,101057.02
2018-01-26T00:34:19.248Z,101061.36
2018-01-26T00:36:45.356Z,101062.19
2018-01-26T00:39:11.523Z,101067.41
2018-01-26T00:41:37.727Z,101067.89
2018-01-26T00:44:03.822Z,101067.09
2018-01-26T00:46:29.986Z,101065.80
2018-01-26T00:48:56.176Z,101067.97
2018-01-26T00:51:22.481Z,101067.11
2018-01-26T00:53:48.619Z,101067.54
2018-01-26T00:56:14.738Z,101058.51
2018-01-26T00:58:40.898Z,101062.39
2018-01-26T01:01:07.024Z,101058.03
2018-01-26T01:03:33.608Z,101059.72
2018-01-26T01:05:59.752Z,101055.76
2018-01-26T01:08:26.127Z,101052.75
2018-01-26T01:10:52.293Z,101051.86
2018-01-26T01:13:18.400Z,101054.93
2018-01-26T01:15:44.622Z,101057.97
2018-01-26T01:18:10.871Z,101055.81
2018-01-26T01:20:37.000Z,101054.11
2018-01-26T01:23:03.132Z,101050.66
2018-01-26T01:25:30.662Z,101052.34
2018-01-26T01:27:56.834Z,101045.33
2018-01-26T01:30:22.960Z,101047.87
2018-01-26T01:32:49.716Z,101045.67
2018-01-26T01:35:15.815Z,101046.49
2018-01-26T01:37:41.924Z,101049.91
2018-01-26T01:40:08.190Z,101042.92
2018-01-26T01:42:34.323Z,101046.30
2018-01-26T01:45:00.522Z,101044.97
2018-01-26T01:47:26.642Z,101048.83
2018-01-26T01:49:52.932Z,101037.87
2018-01-26T01:52:19.046Z,101046.05
2018-01-26T01:54:45.390Z,101045.55
2018-01-26T01:57:11.486Z,101046.33
2018-01-26T01:59:37.696Z,101043.63
2018-01-26T02:02:03.860Z,101049.61
2018-01-26T02:04:30.981Z,101050.43
2018-01-26T02:06:57.097Z,101052.97
2018-01-26T02:09:24.164Z,101052.55
2018-01-26T02:11:50.484Z,101054.70
2018-01-26T02:14:16.623Z,101058.62
2018-01-26T02:16:42.748Z,101054.26
2018-01-26T02:19:09.083Z,101062.09
2018-01-26T02:21:35.210Z,101061.27
2018-01-26T02:24:01.321Z,101057.39
2018-01-26T02:26:27.457Z,101070.45
2018-01-26T02:29:00.571Z,101061.42
2018-01-26T02:31:26.801Z,101057.08
2018-01-26T02:33:52.927Z,101065.86
2018-01-26T02:36:19.058Z,101058.89
2018-01-26T02:38:45.237Z,101064.03
2018-01-26T02:41:11.429Z,101061.77
2018-01-26T02:43:37.547Z,101058.63
2018-01-26T02:46:03.668Z,101050.37
2018-01-26T02:48:29.833Z,101057.75
2018-01-26T02:50:56.014Z,101062.57
2018-01-26T02:53:22.285Z,101064.34
2018-01-26T02:55:48.493Z,101063.53
2018-01-26T02:58:14.682Z,101058.31
2018-01-26T03:00:40.838Z,101057.41
2018-01-26T03:03:06.955Z,101067.78
2018-01-26T03:05:33.097Z,101069.47
2018-01-26T03:07:59.192Z,101069.83
2018-01-26T03:10:25.388Z,101072.80
2018-01-26T03:12:51.473Z,101074.49
2018-01-26T03:15:17.798Z,101084.48
2018-01-26T03:17:43.961Z,101080.50
2018-01-26T03:20:10.137Z,101079.19
2018-01-26T03:22:36.250Z,101083.06
2018-01-26T03:25:02.390Z,101080.41
2018-01-26T03:27:35.537Z,101082.09
2018-01-26T03:30:01.832Z,101095.07
2018-01-26T03:32:27.971Z,101094.11
2018-01-26T03:34:54.124Z,101096.64
2018-01-26T03:37:20.433Z,101099.18
2018-01-26T03:39:46.599Z,101098.64
2018-01-26T03:42:13.357Z,101095.58
2018-01-26T03:44:39.485Z,101101.59
2018-01-26T03:47:05.640Z,101105.14
2018-01-26T03:49:31.785Z,101104.70
2018-01-26T03:51:57.936Z,101106.02
2018-01-26T03:54:24.123Z,101104.22
2018-01-26T03:56:50.278Z,101112.05
2018-01-26T03:59:17.559Z,101109.13
2018-01-26T04:01:43.732Z,101112.30
2018-01-26T04:04:09.829Z,101107.11
2018-01-26T04:06:36.060Z,101111.89
2018-01-26T04:09:02.502Z,101118.44
2018-01-26T04:11:30.508Z,101115.00
2018-01-26T04:13:56.730Z,101111.08
2018-01-26T04:16:24.298Z,101118.41
2018-01-26T04:18:50.509Z,101117.95
2018-01-26T04:21:16.802Z,101121.39
2018-01-26T04:23:43.000Z,101123.11
2018-01-26T04:26:09.351Z,101127.47
2018-01-26T04:28:35.725Z,101123.19
2018-01-26T04:31:02.005Z,101131.42
2018-01-26T04:33:28.147Z,101130.09
2018-01-26T04:35:54.359Z,101132.64
2018-01-26T04:38:20.612Z,101136.55
2018-01-26T04:40:46.932Z,101143.06
2018-01-26T04:43:13.155Z,101150.86
2018-01-26T04:45:39.348Z,101152.95
2018-01-26T04:48:05.608Z,101154.22
2018-01-26T04:50:31.839Z,101161.49
2018-01-26T04:52:57.965Z,101166.20
2018-01-26T04:55:24.394Z,101164.84
2018-01-26T04:57:50.691Z,101163.54
2018-01-26T05:00:16.992Z,101161.35
2018-01-26T05:02:43.137Z,101163.02
2018-01-26T05:05:09.322Z,101160.86
2018-01-26T05:07:35.593Z,101163.87
2018-01-26T05:10:01.797Z,101164.66
2018-01-26T05:12:27.993Z,101170.23
2018-01-26T05:14:54.248Z,101177.20
2018-01-26T05:17:21.518Z,101178.55
2018-01-26T05:19:47.733Z,101179.00
2018-01-26T05:22:13.880Z,101179.02
2018-01-26T05:24:40.106Z,101177.27
2018-01-26T05:27:06.348Z,101178.59
2018-01-26T05:29:32.607Z,101186.86
2018-01-26T05:31:58.851Z,101182.11
2018-01-26T05:34:25.014Z,101185.56
2018-01-26T05:36:51.226Z,101194.20
2018-01-26T05:39:17.453Z,101196.31
2018-01-26T05:41:43.730Z,101197.70
2018-01-26T05:44:09.961Z,101200.73
2018-01-26T05:46:36.126Z,101205.52
2018-01-26T05:49:02.337Z,101204.13
2018-01-26T05:51:28.543Z,101208.44
2018-01-26T05:53:54.706Z,101211.84
2018-01-26T05:56:21.047Z,101211.33
2018-01-26T05:58:49.880Z,101214.78
2018-01-26T06:01:16.127Z,101218.70
2018-01-26T06:03:42.325Z,101210.45
2018-01-26T06:06:08.533Z,101214.37
2018-01-26T06:08:34.755Z,101208.33
2018-01-26T06:11:01.025Z,101214.88
2018-01-26T06:13:27.161Z,101216.14
2018-01-26T06:15:53.398Z,101226.66
2018-01-26T06:18:19.567Z,101233.36
2018-01-26T06:20:46.026Z,101231.83
2018-01-26T06:23:12.752Z,101236.44
2018-01-26T06:25:39.136Z,101247.03
2018-01-26T06:28:05.330Z,101247.64
2018-01-26T06:30:31.581Z,101258.66
2018-01-26T06:32:57.874Z,101259.22
2018-01-26T06:35:24.051Z,101261.52
2018-01-26T06:37:50.272Z,101262.92
2018-01-26T06:40:16.466Z,101264.70
2018-01-26T06:42:42.614Z,101265.23
2018-01-26T06:45:08.812Z,101273.03
2018-01-26T06:47:34.998Z,101266.50
2018-01-26T06:50:01.216Z,101269.45
2018-01-26T06:52:27.363Z,101266.34
2018-01-26T06:54:53.574Z,101268.01
2018-01-26T06:57:19.917Z,101273.09
2018-01-26T06:59:46.213Z,101274.73
2018-01-26T07:02:12.365Z,101271.61
2018-01-26T07:04:38.520Z,101275.47
2018-01-26T07:07:04.852Z,101274.13
2018-01-26T07:09:31.055Z,101278.79
2018-01-26T07:11:57.259Z,101288.66
2018-01-26T07:14:23.628Z,101298.20
2018-01-26T07:16:49.927Z,101306.06
2018-01-26T07:19:16.089Z,101303.12
2018-01-26T07:21:42.355Z,101321.44
2018-01-26T07:24:08.499Z,101320.69
2018-01-26T07:26:34.700Z,101320.34
2018-01-26T07:29:00.866Z,101319.97
2018-01-26T07:31:27.105Z,101315.70
2018-01-26T07:33:53.259Z,101327.13
2018-01-26T07:36:20.888Z,101326.27
2018-01-26T07:38:47.068Z,101336.72
2018-01-26T07:41:13.400Z,101339.34
2018-01-26T07:43:39.545Z,101345.97
2018-01-26T07:46:05.708Z,101349.05
2018-01-26T07:48:31.878Z,101351.31
2018-01-26T07:50:58.185Z,101353.50
2018-01-26T07:53:24.432Z,101358.73
2018-01-26T07:55:50.687Z,101360.48
2018-01-26T07:58:18.463Z,101365.20
2018-01-26T08:00:44.708Z,101380.33
2018-01-26T08:03:11.881Z,101380.31
2018-01-26T08:05:38.045Z,101391.61
2018-01-26T08:08:04.308Z,101403.30
2018-01-26T08:10:30.545Z,101401.08
2018-01-26T08:12:56.862Z,101401.08
2018-01-26T08:15:23.010Z,101399.37
2018-01-26T08:17:49.152Z,101401.52
2018-01-26T08:20:15.353Z,101411.09
2018-01-26T08:22:41.631Z,101406.80
2018-01-26T08:25:07.872Z,101415.19
2018-01-26T08:27:34.050Z,101413.98
2018-01-26T08:30:00.335Z,101415.83
2018-01-26T08:32:26.471Z,101419.85
2018-01-26T08:34:52.617Z,101420.37
2018-01-26T08:37:18.861Z,101429.99
2018-01-26T08:39:45.062Z,101430.94
2018-01-26T08:42:11.212Z,101436.61
2018-01-26T08:44:37.397Z,101438.92
2018-01-26T08:47:03.573Z,101432.48
2018-01-26T08:49:29.765Z,101434.03
2018-01-26T08:51:56.013Z,101442.47
2018-01-26T08:54:25.007Z,101445.71
2018-01-26T08:56:51.836Z,101462.05
2018-01-26T08:59:19.091Z,101467.11
2018-01-26T09:01:45.375Z,101468.63
2018-01-26T09:04:12.088Z,101473.13
2018-01-26T09:06:38.289Z,101474.98
2018-01-26T09:09:04.515Z,101482.94
2018-01-26T09:11:30.771Z,101482.97
2018-01-26T09:13:56.933Z,101476.89
2018-01-26T09:16:23.165Z,101483.95
2018-01-26T09:18:49.409Z,101482.72
2018-01-26T09:21:15.579Z,101490.66
2018-01-26T09:23:41.707Z,101495.09
2018-01-26T09:26:07.977Z,101501.84
2018-01-26T09:28:34.164Z,101501.00
2018-01-26T09:31:00.326Z,101505.89
2018-01-26T09:33:26.575Z,101502.02
2018-01-26T09:35:52.801Z,101510.72
2018-01-26T09:38:18.942Z,101510.78
2018-01-26T09:40:45.116Z,101510.83
2018-01-26T09:43:11.299Z,101522.66
2018-01-26T09:45:37.572Z,101517.05
2018-01-26T09:48:03.753Z,101523.16
2018-01-26T09:50:30.053Z,101524.48
2018-01-26T09:52:56.248Z,101525.84
2018-01-26T09:55:22.525Z,101525.05
2018-01-26T09:57:48.936Z,101526.05
2018-01-26T10:00:15.205Z,101533.61
2018-01-26T10:02:41.504Z,101539.94
2018-01-26T10:05:07.740Z,101540.05
2018-01-26T10:07:33.956Z,101544.97
2018-01-26T10:10:00.210Z,101550.33
2018-01-26T10:12:26.422Z,101558.69
2018-01-26T10:14:52.602Z,101564.46
2018-01-26T10:17:18.890Z,101560.59
2018-01-26T10:19:47.958Z,101568.05
2018-01-26T10:22:14.197Z,101570.45
2018-01-26T10:24:40.515Z,101580.17
2018-01-26T10:27:06.802Z,101579.48
2018-01-26T10:29:33.018Z,101585.36
2018-01-26T10:31:59.279Z,101584.59
2018-01-26T10:34:25.478Z,101584.73
2018-01-26T10:36:51.745Z,101571.25
2018-01-26T10:39:17.914Z,101583.38
2018-01-26T10:41:44.117Z,101588.16
2018-01-26T10:44:10.342Z,101589.92
2018-01-26T10:46:36.770Z,101593.33
2018-01-26T10:49:03.008Z,101587.70
2018-01-26T10:51:29.236Z,101599.03
2018-01-26T10:53:55.448Z,101587.75
2018-01-26T10:56:21.769Z,101596.86
2018-01-26T10:58:48.327Z,101595.92
2018-01-26T11:01:14.477Z,101602.53
2018-01-26T11:03:41.382Z,101605.64
2018-01-26T11:06:07.666Z,101603.52
2018-01-26T11:08:34.283Z,101608.31
2018-01-26T11:11:00.810Z,101605.77
2018-01-26T11:13:27.063Z,101608.86
2018-01-26T11:15:53.374Z,101610.64
2018-01-26T11:18:19.646Z,101615.15
2018-01-26T11:20:45.884Z,101621.47
2018-01-26T11:23:12.120Z,101615.10
2018-01-26T11:25:38.487Z,101619.11
2018-01-26T11:28:04.871Z,101627.00
2018-01-26T11:30:31.870Z,101630.52
2018-01-26T11:32:58.041Z,101634.38
2018-01-26T11:35:24.255Z,101642.33
2018-01-26T11:37:50.785Z,101632.82
2018-01-26T11:40:16.978Z,101633.86
2018-01-26T11:42:43.193Z,101631.27
2018-01-26T11:45:09.491Z,101632.27
2018-01-26T11:47:35.882Z,101643.75
2018-01-26T11:50:02.227Z,101642.46
2018-01-26T11:52:28.472Z,101647.75
2018-01-26T11:54:54.817Z,101650.36
2018-01-26T11:57:21.760Z,101650.35
2018-01-26T11:59:47.982Z,101657.39
2018-01-26T12:02:14.209Z,101656.61
2018-01-26T12:04:41.423Z,101657.92
2018-01-26T12:07:08.917Z,101667.58
2018-01-26T12:09:35.498Z,101672.52
2018-01-26T12:12:02.577Z,101681.75
2018-01-26T12:14:29.150Z,101678.22
2018-01-26T12:16:55.591Z,101676.06
2018-01-26T12:19:21.959Z,101682.83
2018-01-26T12:21:48.314Z,101681.05
2018-01-26T12:24:14.682Z,101683.09
2018-01-26T12:26:41.216Z,101681.84
2018-01-26T12:29:08.218Z,101675.75
2018-01-26T12:31:34.590Z,101673.63
2018-01-26T12:34:01.051Z,101670.27
2018-01-26T12:36:27.397Z,101675.62
2018-01-26T12:38:55.377Z,101682.64
2018-01-26T12:41:22.251Z,101683.06
2018-01-26T12:43:49.407Z,101688.36
2018-01-26T12:46:17.307Z,101689.69
2018-01-26T12:48:44.409Z,101702.50
2018-01-26T12:51:12.175Z,101694.75
2018-01-26T12:53:38.845Z,101707.99
2018-01-26T12:56:05.239Z,101706.75
2018-01-26T12:58:38.349Z,101705.02
2018-01-26T13:01:04.724Z,101703.22
2018-01-26T13:03:31.176Z,101714.01
2018-01-26T13:05:57.479Z,101710.19
2018-01-26T13:08:23.733Z,101708.17
2018-01-26T13:10:49.850Z,101711.53
2018-01-26T13:13:16.017Z,101712.31
2018-01-26T13:15:42.169Z,101719.06
2018-01-26T13:18:08.297Z,101716.65
2018-01-26T13:20:34.432Z,101718.11
2018-01-26T13:23:00.607Z,101713.05
2018-01-26T13:25:27.494Z,101719.40
2018-01-26T13:27:55.700Z,101722.33
2018-01-26T13:30:21.967Z,101722.16
2018-01-26T13:32:50.629Z,101726.69
2018-01-26T13:35:17.080Z,101726.30
2018-01-26T13:37:43.270Z,101721.43
2018-01-26T13:40:09.442Z,101722.27
2018-01-26T13:42:35.637Z,101725.72
2018-01-26T13:45:01.854Z,101733.48
2018-01-26T13:47:30.332Z,101737.67
2018-01-26T13:49:56.588Z,101738.80
2018-01-26T13:52:22.728Z,101740.83
2018-01-26T13:54:48.968Z,101740.28
2018-01-26T13:57:15.333Z,101748.95
2018-01-26T13:59:41.523Z,101750.33
2018-01-26T14:02:07.677Z,101759.19
2018-01-26T14:04:33.906Z,101755.45
2018-01-26T14:07:00.114Z,101758.27
2018-01-26T14:09:29.026Z,101762.28
2018-01-26T14:11:55.229Z,101760.89
2018-01-26T14:14:21.382Z,101758.33
2018-01-26T14:16:47.576Z,101768.40
2018-01-26T14:19:13.758Z,101764.88
2018-01-26T14:21:39.956Z,101775.66
2018-01-26T14:24:06.116Z,101776.45
2018-01-26T14:26:32.674Z,101780.41
2018-01-26T14:28:58.990Z,101788.63
2018-01-26T14:31:25.398Z,101787.31
2018-01-26T14:33:51.541Z,101790.82
2018-01-26T14:36:17.767Z,101798.74
2018-01-26T14:38:44.067Z,101799.58
2018-01-26T14:41:10.309Z,101811.40
2018-01-26T14:43:37.103Z,101817.48
2018-01-26T14:46:03.277Z,101820.03
2018-01-26T14:48:29.488Z,101833.55
2018-01-26T14:50:55.680Z,101834.81
2018-01-26T14:53:21.883Z,101841.76
2018-01-26T14:55:48.174Z,101847.72
2018-01-26T14:58:14.494Z,101854.56
2018-01-26T15:00:40.652Z,101860.27
2018-01-26T15:03:06.848Z,101874.17
2018-01-26T15:05:33.158Z,101874.20
2018-01-26T15:07:59.431Z,101883.02
2018-01-26T15:10:25.611Z,101882.59
2018-01-26T15:12:51.943Z,101894.37
2018-01-26T15:15:18.220Z,101897.38
2018-01-26T15:17:44.334Z,101901.28
2018-01-26T15:20:10.515Z,101897.33
2018-01-26T15:22:36.751Z,101901.64
2018-01-26T15:25:03.014Z,101908.16
2018-01-26T15:27:29.248Z,101903.70
2018-01-26T15:29:55.425Z,101905.85
2018-01-26T15:32:21.696Z,101916.28
2018-01-26T15:34:47.991Z,101911.44
2018-01-26T15:37:14.235Z,101913.18
2018-01-26T15:39:40.494Z,101920.55
2018-01-26T15:42:06.651Z,101923.66
2018-01-26T15:44:32.905Z,101924.01
2018-01-26T15:46:59.607Z,101927.86
2018-01-26T15:49:25.724Z,101925.06
2018-01-26T15:51:51.885Z,101930.59
2018-01-26T15:54:18.027Z,101936.08
2018-01-26T15:56:51.365Z,101934.30
2018-01-26T15:59:17.592Z,101935.58
2018-01-26T16:01:43.730Z,101942.45
2018-01-26T16:04:09.903Z,101949.81
2018-01-26T16:06:36.135Z,101959.85
2018-01-26T16:09:02.347Z,101959.69
2018-01-26T16:11:28.533Z,101959.65
2018-01-26T16:13:54.656Z,101972.31
2018-01-26T16:16:20.858Z,101969.63
2018-01-26T16:18:47.480Z,101976.08
2018-01-26T16:21:13.761Z,101985.73
2018-01-26T16:23:40.195Z,101986.59
2018-01-26T16:26:06.486Z,101988.77
2018-01-26T16:28:32.656Z,101988.34
2018-01-26T16:30:58.968Z,101993.09
2018-01-26T16:33:26.495Z,101994.36
2018-01-26T16:35:52.753Z,102001.75
2018-01-26T16:38:18.910Z,102007.30
2018-01-26T16:40:45.166Z,102010.70
2018-01-26T16:43:11.334Z,102018.11
2018-01-26T16:45:37.587Z,102030.70
2018-01-26T16:48:03.787Z,102032.74
2018-01-26T16:50:29.945Z,102042.68
2018-01-26T16:52:56.155Z,102044.77
2018-01-26T16:55:22.497Z,102047.33
2018-01-26T16:57:48.703Z,102051.18
2018-01-26T17:00:15.007Z,102058.08
2018-01-26T17:02:41.203Z,102068.19
2018-01-26T17:05:07.390Z,102066.38
2018-01-26T17:07:33.773Z,102069.41
2018-01-26T17:09:59.955Z,102075.10
2018-01-26T17:12:26.153Z,102082.47
2018-01-26T17:14:52.351Z,102087.33
2018-01-26T17:17:18.637Z,102091.23
2018-01-26T17:19:44.844Z,102091.25
2018-01-26T17:22:11.014Z,102099.47
2018-01-26T17:24:37.180Z,102103.86
2018-01-26T17:27:03.613Z,102112.55
2018-01-26T17:29:29.756Z,102118.20
2018-01-26T17:31:56.545Z,102119.46
2018-01-26T17:34:22.694Z,102131.61
2018-01-26T17:36:48.885Z,102139.33
2018-01-26T17:39:16.247Z,102145.41
2018-01-26T17:41:42.892Z,102148.93
2018-01-26T17:44:09.200Z,102148.95
2018-01-26T17:46:35.440Z,102157.70
2018-01-26T17:49:01.682Z,102165.08
2018-01-26T17:51:27.935Z,102174.27
2018-01-26T17:53:54.189Z,102173.39
2018-01-26T17:56:20.508Z,102186.05
2018-01-26T17:58:46.732Z,102194.80
2018-01-26T18:01:12.967Z,102198.23
2018-01-26T18:03:39.302Z,102191.33
2018-01-26T18:06:05.605Z,102200.13
2018-01-26T18:08:31.892Z,102198.80
2018-01-26T18:10:58.175Z,102205.73
2018-01-26T18:13:24.400Z,102204.06
2018-01-26T18:15:50.681Z,102205.73
2018-01-26T18:18:16.909Z,102203.09
2018-01-26T18:20:43.129Z,102200.89
2018-01-26T18:23:09.392Z,102211.22
2018-01-26T18:25:35.656Z,102220.68
2018-01-26T18:28:02.081Z,102219.27
2018-01-26T18:30:28.254Z,102230.97
2018-01-26T18:32:54.442Z,102231.73
2018-01-26T18:35:20.933Z,102228.14
2018-01-26T18:37:47.139Z,102236.79
2018-01-26T18:40:13.401Z,102251.94
2018-01-26T18:42:39.572Z,102257.50
2018-01-26T18:45:05.721Z,102264.83
2018-01-26T18:47:32.026Z,102276.08
2018-01-26T18:49:58.245Z,102282.52
2018-01-26T18:52:24.529Z,102292.46
2018-01-26T18:54:50.975Z,102295.81
2018-01-26T18:57:17.237Z,102294.09
2018-01-26T18:59:43.439Z,102301.44
2018-01-26T19:02:09.579Z,102309.64
2018-01-26T19:04:35.770Z,102316.16
2018-01-26T19:07:02.133Z,102318.75
2018-01-26T19:09:29.346Z,102325.77
2018-01-26T19:11:58.836Z,102328.87
2018-01-26T19:14:25.329Z,102332.93
2018-01-26T19:16:53.844Z,102341.66
2018-01-26T19:19:20.177Z,102335.11
2018-01-26T19:21:46.416Z,102344.82
2018-01-26T19:24:12.749Z,102344.91
2018-01-26T19:26:39.149Z,102344.91
2018-01-26T19:29:06.181Z,102353.27
2018-01-26T19:31:32.422Z,102361.07
2018-01-26T19:33:58.784Z,102368.92
2018-01-26T19:36:25.042Z,102374.98
2018-01-26T19:38:51.825Z,102375.03
2018-01-26T19:41:18.057Z,102382.86
2018-01-26T19:43:44.209Z,102386.34
2018-01-26T19:46:10.432Z,102394.52
2018-01-26T19:48:36.655Z,102390.05
2018-01-26T19:51:02.805Z,102395.30
2018-01-26T19:53:28.986Z,102390.94
2018-01-26T19:55:55.290Z,102395.71
2018-01-26T19:58:21.474Z,102396.59
2018-01-26T20:00:47.620Z,102392.69
2018-01-26T20:03:25.965Z,102397.92
2018-01-26T20:05:58.220Z,102393.47
2018-01-26T20:08:30.590Z,102391.73
2018-01-26T20:10:56.727Z,102389.59
2018-01-26T20:13:27.784Z,102394.42
2018-01-26T20:15:54.024Z,102396.16
2018-01-26T20:18:20.231Z,102407.05
2018-01-26T20:20:46.368Z,102403.58
2018-01-26T20:23:12.535Z,102402.73
2018-01-26T20:25:38.724Z,102408.86
2018-01-26T20:28:05.082Z,102403.10
2018-01-26T20:30:31.236Z,102403.58
2018-01-26T20:32:57.408Z,102410.17
2018-01-26T20:35:23.517Z,102410.17
2018-01-26T20:37:49.742Z,102414.50
2018-01-26T20:40:15.855Z,102416.67
2018-01-26T20:42:42.029Z,102421.88
2018-01-26T20:45:08.194Z,102433.22
2018-01-26T20:47:34.565Z,102436.62
2018-01-26T20:50:00.718Z,102441.43
2018-01-26T20:52:26.873Z,102448.39
2018-01-26T20:54:53.246Z,102456.22
2018-01-26T20:57:19.434Z,102444.02
2018-01-26T20:59:45.604Z,102453.18
2018-01-26T21:02:11.758Z,102455.31
2018-01-26T21:04:39.132Z,102464.98
2018-01-26T21:07:05.337Z,102461.91
2018-01-26T21:09:31.490Z,102471.09
2018-01-26T21:11:57.588Z,102473.73
2018-01-26T21:14:23.847Z,102475.84
2018-01-26T21:16:50.037Z,102473.16
2018-01-26T21:19:16.195Z,102480.05
2018-01-26T21:21:42.391Z,102476.50
2018-01-26T21:24:08.567Z,102484.30
2018-01-26T21:26:34.759Z,102479.04
2018-01-26T21:29:00.902Z,102477.38
2018-01-26T21:31:27.033Z,102483.87
2018-01-26T21:33:53.206Z,102485.13
2018-01-26T21:36:19.354Z,102486.91
2018-01-26T21:38:46.081Z,102481.20
2018-01-26T21:41:12.204Z,102478.21
2018-01-26T21:43:38.351Z,102479.44
2018-01-26T21:46:04.480Z,102472.39
2018-01-26T21:48:30.634Z,102479.53
2018-01-26T21:50:56.748Z,102489.58
2018-01-26T21:53:22.893Z,102492.84
2018-01-26T21:55:49.153Z,102488.81
2018-01-26T21:58:15.419Z,102488.14
2018-01-26T22:00:41.537Z,102492.66
2018-01-26T22:03:07.644Z,102492.75
2018-01-26T22:05:33.780Z,102501.65
2018-01-26T22:07:59.968Z,102509.76
2018-01-26T22:10:26.115Z,102517.87
2018-01-26T22:12:52.234Z,102518.23
2018-01-26T22:15:18.367Z,102519.08
2018-01-26T22:17:44.574Z,102529.98
2018-01-26T22:20:10.766Z,102521.31
2018-01-26T22:22:36.995Z,102526.60
2018-01-26T22:25:03.177Z,102525.78
2018-01-26T22:27:29.367Z,102528.42
2018-01-26T22:29:55.495Z,102523.64
2018-01-26T22:32:23.914Z,102525.49
2018-01-26T22:34:50.054Z,102523.22
2018-01-26T22:37:16.242Z,102525.16
2018-01-26T22:39:42.411Z,102528.37
2018-01-26T22:42:08.569Z,102536.03
2018-01-26T22:44:34.763Z,102540.52
2018-01-26T22:47:00.921Z,102537.61
2018-01-26T22:49:27.109Z,102546.92
2018-01-26T22:51:53.320Z,102550.08
2018-01-26T22:54:19.639Z,102550.78
2018-01-26T22:56:45.802Z,102556.38
2018-01-26T22:59:12.158Z,102554.25
2018-01-26T23:01:38.329Z,102552.55
2018-01-26T23:04:04.442Z,102561.36
2018-01-26T23:06:30.584Z,102560.16
2018-01-26T23:08:56.780Z,102567.66
2018-01-26T23:11:22.903Z,102572.97
2018-01-26T23:13:49.051Z,102565.77
2018-01-26T23:16:15.877Z,102563.86
2018-01-26T23:18:42.110Z,102565.28
2018-01-26T23:21:08.248Z,102564.12
2018-01-26T23:23:34.354Z,102569.43
2018-01-26T23:26:00.535Z,102570.40
2018-01-26T23:28:26.786Z,102568.30
2018-01-26T23:30:52.903Z,102570.15
2018-01-26T23:33:18.995Z,102567.17
2018-01-26T23:35:45.229Z,102568.13
2018-01-26T23:38:14.520Z,102569.98
2018-01-26T23:40:40.637Z,102573.45
2018-01-26T23:43:06.833Z,102569.58
2018-01-26T23:45:33.067Z,102572.68
2018-01-26T23:47:59.231Z,102577.99
2018-01-26T23:50:25.346Z,102575.23
2018-01-26T23:52:51.528Z,102570.13
2018-01-26T23:55:17.818Z,102566.72
2018-01-26T23:57:43.977Z,102565.41
